sensor_id;sensor_type;location;lat;lon;timestamp;pressure;altitude;pressure_sealevel;temperature;humidity
32197;BME280;18697;42.770;23.400;2023-03-25T00:02:22;95356.94;;;12.41;58.93
32197;BME280;18697;42.770;23.400;2023-03-25T00:04:52;95356.16;;;12.26;59.19
32197;BME280;18697;42.770;23.400;2023-03-25T00:07:19;95355.41;;;12.10;59.03
32197;BME280;18697;42.770;23.400;2023-03-25T00:09:44;95349.47;;;12.03;59.50
32197;BME280;18697;42.770;23.400;2023-03-25T00:12:11;95349.19;;;12.01;58.71
32197;BME280;18697;42.770;23.400;2023-03-25T00:14:36;95357.72;;;11.97;59.46
32197;BME280;18697;42.770;23.400;2023-03-25T00:17:03;95351.00;;;11.89;59.52
32197;BME280;18697;42.770;23.400;2023-03-25T00:19:31;95354.47;;;11.84;59.81
32197;BME280;18697;42.770;23.400;2023-03-25T00:21:58;95339.84;;;11.74;60.12
32197;BME280;18697;42.770;23.400;2023-03-25T00:24:23;95333.31;;;11.63;60.88
32197;BME280;18697;42.770;23.400;2023-03-25T00:26:48;95331.50;;;11.60;61.08
32197;BME280;18697;42.770;23.400;2023-03-25T00:29:14;95338.00;;;11.57;61.21
32197;BME280;18697;42.770;23.400;2023-03-25T00:31:41;95340.97;;;11.53;61.27
32197;BME280;18697;42.770;23.400;2023-03-25T00:34:07;95343.75;;;11.53;61.64
32197;BME280;18697;42.770;23.400;2023-03-25T00:36:33;95338.00;;;11.57;61.45
32197;BME280;18697;42.770;23.400;2023-03-25T00:39:03;95337.06;;;11.60;61.18
32197;BME280;18697;42.770;23.400;2023-03-25T00:41:29;95328.97;;;11.47;61.28
32197;BME280;18697;42.770;23.400;2023-03-25T00:43:56;95335.19;;;11.42;61.80
32197;BME280;18697;42.770;23.400;2023-03-25T00:46:23;95329.81;;;11.38;61.60
32197;BME280;18697;42.770;23.400;2023-03-25T00:48:50;95341.97;;;11.26;61.85
32197;BME280;18697;42.770;23.400;2023-03-25T00:51:16;95340.78;;;11.18;61.65
32197;BME280;18697;42.770;23.400;2023-03-25T00:53:46;95329.66;;;11.03;62.07
32197;BME280;18697;42.770;23.400;2023-03-25T00:56:12;95320.53;;;11.03;61.75
32197;BME280;18697;42.770;23.400;2023-03-25T00:58:38;95324.16;;;10.94;61.84
32197;BME280;18697;42.770;23.400;2023-03-25T01:01:11;95321.03;;;10.77;62.45
32197;BME280;18697;42.770;23.400;2023-03-25T01:03:38;95316.72;;;10.76;62.85
32197;BME280;18697;42.770;23.400;2023-03-25T01:06:11;95322.50;;;10.88;62.78
32197;BME280;18697;42.770;23.400;2023-03-25T01:08:37;95321.91;;;10.83;62.59
32197;BME280;18697;42.770;23.400;2023-03-25T01:11:04;95320.66;;;10.84;62.63
32197;BME280;18697;42.770;23.400;2023-03-25T01:13:30;95319.19;;;10.74;62.73
32197;BME280;18697;42.770;23.400;2023-03-25T01:15:55;95317.13;;;10.84;62.42
32197;BME280;18697;42.770;23.400;2023-03-25T01:18:21;95315.69;;;10.89;62.54
32197;BME280;18697;42.770;23.400;2023-03-25T01:20:46;95310.50;;;10.81;62.33
32197;BME280;18697;42.770;23.400;2023-03-25T01:23:12;95305.91;;;10.78;62.86
32197;BME280;18697;42.770;23.400;2023-03-25T01:25:37;95307.78;;;10.72;62.64
32197;BME280;18697;42.770;23.400;2023-03-25T01:28:03;95296.59;;;10.58;63.34
32197;BME280;18697;42.770;23.400;2023-03-25T01:30:30;95294.06;;;10.45;63.48
32197;BME280;18697;42.770;23.400;2023-03-25T01:32:55;95294.66;;;10.49;63.91
32197;BME280;18697;42.770;23.400;2023-03-25T01:35:20;95294.53;;;10.43;63.82
32197;BME280;18697;42.770;23.400;2023-03-25T01:37:46;95287.03;;;10.35;63.82
32197;BME280;18697;42.770;23.400;2023-03-25T01:40:18;95275.28;;;10.40;64.06
32197;BME280;18697;42.770;23.400;2023-03-25T01:42:44;95285.44;;;10.43;64.00
32197;BME280;18697;42.770;23.400;2023-03-25T01:45:24;95274.03;;;10.41;64.18
32197;BME280;18697;42.770;23.400;2023-03-25T01:47:58;95279.31;;;10.39;63.87
32197;BME280;18697;42.770;23.400;2023-03-25T01:50:25;95273.38;;;10.46;63.29
32197;BME280;18697;42.770;23.400;2023-03-25T01:52:53;95273.09;;;10.44;63.11
32197;BME280;18697;42.770;23.400;2023-03-25T01:55:21;95276.81;;;10.41;63.22
32197;BME280;18697;42.770;23.400;2023-03-25T01:57:48;95280.53;;;10.38;62.84
32197;BME280;18697;42.770;23.400;2023-03-25T02:00:19;95270.38;;;10.35;63.23
32197;BME280;18697;42.770;23.400;2023-03-25T02:02:45;95274.69;;;10.36;63.42
32197;BME280;18697;42.770;23.400;2023-03-25T02:07:39;95268.44;;;10.17;63.85
32197;BME280;18697;42.770;23.400;2023-03-25T02:10:08;95268.94;;;10.06;63.74
32197;BME280;18697;42.770;23.400;2023-03-25T02:12:35;95270.06;;;10.00;64.13
32197;BME280;18697;42.770;23.400;2023-03-25T02:15:04;95264.91;;;10.16;63.53
32197;BME280;18697;42.770;23.400;2023-03-25T02:42:21;95257.81;;;9.73;64.95
32197;BME280;18697;42.770;23.400;2023-03-25T02:44:59;95260.75;;;9.70;65.44
32197;BME280;18697;42.770;23.400;2023-03-25T02:47:27;95262.47;;;9.67;65.20
32197;BME280;18697;42.770;23.400;2023-03-25T02:49:58;95257.97;;;9.70;65.24
32197;BME280;18697;42.770;23.400;2023-03-25T02:52:53;95253.50;;;9.72;65.22
32197;BME280;18697;42.770;23.400;2023-03-25T02:55:18;95258.66;;;9.65;65.19
32197;BME280;18697;42.770;23.400;2023-03-25T02:57:49;95257.97;;;9.70;65.00
32197;BME280;18697;42.770;23.400;2023-03-25T03:00:21;95253.34;;;9.76;64.82
32197;BME280;18697;42.770;23.400;2023-03-25T03:02:54;95252.88;;;9.77;64.68
32197;BME280;18697;42.770;23.400;2023-03-25T03:05:32;95247.50;;;9.74;64.39
32197;BME280;18697;42.770;23.400;2023-03-25T03:11:00;95250.97;;;9.60;64.43
32197;BME280;18697;42.770;23.400;2023-03-25T03:16:36;95245.44;;;9.50;64.98
32197;BME280;18697;42.770;23.400;2023-03-25T03:19:02;95254.25;;;9.40;65.43
32197;BME280;18697;42.770;23.400;2023-03-25T03:21:47;95254.41;;;9.36;65.55
32197;BME280;18697;42.770;23.400;2023-03-25T03:24:26;95261.31;;;9.41;64.88
32197;BME280;18697;42.770;23.400;2023-03-25T03:32:21;95247.94;;;9.39;65.30
32197;BME280;18697;42.770;23.400;2023-03-25T03:34:55;95242.88;;;9.29;65.84
32197;BME280;18697;42.770;23.400;2023-03-25T03:37:34;95256.56;;;9.32;65.94
32197;BME280;18697;42.770;23.400;2023-03-25T03:40:03;95253.00;;;9.41;65.79
32197;BME280;18697;42.770;23.400;2023-03-25T03:42:36;95254.69;;;9.47;65.12
32197;BME280;18697;42.770;23.400;2023-03-25T03:45:12;95252.06;;;9.44;64.37
32197;BME280;18697;42.770;23.400;2023-03-25T03:47:45;95242.06;;;9.46;63.46
32197;BME280;18697;42.770;23.400;2023-03-25T03:50:17;95238.69;;;9.42;63.47
32197;BME280;18697;42.770;23.400;2023-03-25T03:55:36;95244.81;;;9.46;63.25
32197;BME280;18697;42.770;23.400;2023-03-25T03:58:17;95250.38;;;9.46;63.54
32197;BME280;18697;42.770;23.400;2023-03-25T04:00:51;95244.56;;;9.26;63.62
32197;BME280;18697;42.770;23.400;2023-03-25T04:03:27;95245.03;;;9.25;63.77
32197;BME280;18697;42.770;23.400;2023-03-25T04:06:02;95251.63;;;9.27;63.58
32197;BME280;18697;42.770;23.400;2023-03-25T04:09:04;95248.88;;;9.27;63.69
32197;BME280;18697;42.770;23.400;2023-03-25T04:11:43;95245.47;;;9.32;63.42
32197;BME280;18697;42.770;23.400;2023-03-25T04:14:12;95247.34;;;9.26;64.12
32197;BME280;18697;42.770;23.400;2023-03-25T04:16:37;95256.28;;;9.03;64.75
32197;BME280;18697;42.770;23.400;2023-03-25T04:19:06;95258.88;;;9.15;64.70
32197;BME280;18697;42.770;23.400;2023-03-25T04:21:32;95249.53;;;8.85;65.71
32197;BME280;18697;42.770;23.400;2023-03-25T04:23:57;95260.28;;;9.02;65.14
32197;BME280;18697;42.770;23.400;2023-03-25T04:26:27;95255.81;;;8.95;65.47
32197;BME280;18697;42.770;23.400;2023-03-25T04:28:55;95261.50;;;8.92;65.58
32197;BME280;18697;42.770;23.400;2023-03-25T04:31:23;95261.53;;;8.82;65.96
32197;BME280;18697;42.770;23.400;2023-03-25T04:33:50;95263.84;;;8.75;66.23
32197;BME280;18697;42.770;23.400;2023-03-25T04:36:16;95263.69;;;8.78;66.82
32197;BME280;18697;42.770;23.400;2023-03-25T04:38:42;95266.78;;;8.80;66.20
32197;BME280;18697;42.770;23.400;2023-03-25T04:41:11;95261.53;;;8.82;65.89
32197;BME280;18697;42.770;23.400;2023-03-25T04:43:38;95274.31;;;8.80;65.97
32197;BME280;18697;42.770;23.400;2023-03-25T04:46:04;95266.00;;;8.80;66.02
32197;BME280;18697;42.770;23.400;2023-03-25T04:48:33;95263.38;;;8.76;66.05
32197;BME280;18697;42.770;23.400;2023-03-25T04:51:00;95262.63;;;8.85;66.20
32197;BME280;18697;42.770;23.400;2023-03-25T04:53:28;95262.13;;;8.96;66.41
32197;BME280;18697;42.770;23.400;2023-03-25T04:55:54;95261.81;;;9.03;66.44
32197;BME280;18697;42.770;23.400;2023-03-25T04:58:20;95270.28;;;9.17;66.29
32197;BME280;18697;42.770;23.400;2023-03-25T05:00:48;95275.66;;;9.30;65.42
32197;BME280;18697;42.770;23.400;2023-03-25T05:03:16;95272.56;;;9.46;64.88
32197;BME280;18697;42.770;23.400;2023-03-25T05:05:41;95269.16;;;9.51;64.19
32197;BME280;18697;42.770;23.400;2023-03-25T05:08:07;95276.09;;;9.47;64.07
32197;BME280;18697;42.770;23.400;2023-03-25T05:10:34;95273.78;;;9.45;64.72
32197;BME280;18697;42.770;23.400;2023-03-25T05:13:02;95284.25;;;9.41;65.05
32197;BME280;18697;42.770;23.400;2023-03-25T05:15:29;95287.34;;;9.34;65.42
32197;BME280;18697;42.770;23.400;2023-03-25T05:17:57;95284.28;;;9.32;66.08
32197;BME280;18697;42.770;23.400;2023-03-25T05:20:23;95287.03;;;9.32;66.45
32197;BME280;18697;42.770;23.400;2023-03-25T05:22:49;95284.75;;;9.21;67.05
32197;BME280;18697;42.770;23.400;2023-03-25T05:25:17;95281.22;;;9.12;67.52
32197;BME280;18697;42.770;23.400;2023-03-25T05:27:46;95282.75;;;9.13;67.50
32197;BME280;18697;42.770;23.400;2023-03-25T05:30:12;95281.53;;;9.05;68.28
32197;BME280;18697;42.770;23.400;2023-03-25T05:32:38;95280.63;;;8.89;69.20
32197;BME280;18697;42.770;23.400;2023-03-25T05:35:05;95279.09;;;8.88;69.81
32197;BME280;18697;42.770;23.400;2023-03-25T05:37:30;95281.84;;;8.88;70.07
32197;BME280;18697;42.770;23.400;2023-03-25T05:39:56;95285.69;;;8.82;70.94
32197;BME280;18697;42.770;23.400;2023-03-25T05:42:22;95279.84;;;8.89;71.24
32197;BME280;18697;42.770;23.400;2023-03-25T05:44:50;95298.13;;;9.05;72.15
32197;BME280;18697;42.770;23.400;2023-03-25T05:47:21;95291.06;;;9.13;71.64
32197;BME280;18697;42.770;23.400;2023-03-25T05:49:48;95289.53;;;9.21;71.57
32197;BME280;18697;42.770;23.400;2023-03-25T05:52:14;95275.97;;;9.32;71.85
32197;BME280;18697;42.770;23.400;2023-03-25T05:54:42;95283.63;;;9.55;70.45
32197;BME280;18697;42.770;23.400;2023-03-25T05:57:08;95283.06;;;9.75;70.32
32197;BME280;18697;42.770;23.400;2023-03-25T05:59:34;95277.91;;;10.01;69.64
32197;BME280;18697;42.770;23.400;2023-03-25T06:02:06;95285.97;;;10.32;68.65
32197;BME280;18697;42.770;23.400;2023-03-25T06:04:35;95282.25;;;10.59;67.88
32197;BME280;18697;42.770;23.400;2023-03-25T06:07:12;95284.72;;;10.81;67.12
32197;BME280;18697;42.770;23.400;2023-03-25T06:09:48;95277.16;;;10.81;67.06
32197;BME280;18697;42.770;23.400;2023-03-25T06:12:19;95278.22;;;11.08;65.90
32197;BME280;18697;42.770;23.400;2023-03-25T06:14:48;95272.94;;;11.25;65.69
32197;BME280;18697;42.770;23.400;2023-03-25T06:17:18;95272.28;;;11.30;64.42
32197;BME280;18697;42.770;23.400;2023-03-25T06:19:47;95275.66;;;11.48;64.42
32197;BME280;18697;42.770;23.400;2023-03-25T06:22:12;95275.66;;;11.63;63.76
32197;BME280;18697;42.770;23.400;2023-03-25T06:24:39;95268.41;;;11.80;63.35
32197;BME280;18697;42.770;23.400;2023-03-25T06:27:09;95286.59;;;11.96;63.39
32197;BME280;18697;42.770;23.400;2023-03-25T06:29:36;95284.47;;;12.21;62.78
32197;BME280;18697;42.770;23.400;2023-03-25T06:32:03;95287.59;;;12.43;61.78
32197;BME280;18697;42.770;23.400;2023-03-25T06:34:29;95297.59;;;12.90;60.01
32197;BME280;18697;42.770;23.400;2023-03-25T06:36:57;95293.34;;;13.15;58.83
32197;BME280;18697;42.770;23.400;2023-03-25T06:39:22;95287.16;;;13.52;58.08
32197;BME280;18697;42.770;23.400;2023-03-25T06:41:48;95278.47;;;13.70;57.62
32197;BME280;18697;42.770;23.400;2023-03-25T06:44:13;95284.25;;;13.92;57.96
32197;BME280;18697;42.770;23.400;2023-03-25T06:46:38;95273.81;;;13.87;58.17
32197;BME280;18697;42.770;23.400;2023-03-25T06:49:04;95275.66;;;13.96;57.95
32197;BME280;18697;42.770;23.400;2023-03-25T06:51:30;95274.13;;;14.32;57.78
32197;BME280;18697;42.770;23.400;2023-03-25T06:53:55;95269.56;;;13.97;57.50
32197;BME280;18697;42.770;23.400;2023-03-25T06:56:21;95277.78;;;14.43;57.24
32197;BME280;18697;42.770;23.400;2023-03-25T06:58:46;95275.66;;;14.64;55.79
32197;BME280;18697;42.770;23.400;2023-03-25T07:01:11;95274.41;;;14.71;56.26
32197;BME280;18697;42.770;23.400;2023-03-25T07:03:37;95280.56;;;14.86;55.96
32197;BME280;18697;42.770;23.400;2023-03-25T07:06:05;95284.31;;;15.26;55.08
32197;BME280;18697;42.770;23.400;2023-03-25T07:08:31;95280.94;;;15.10;54.94
32197;BME280;18697;42.770;23.400;2023-03-25T07:11:05;95272.94;;;14.87;54.36
32197;BME280;18697;42.770;23.400;2023-03-25T07:13:31;95271.19;;;14.89;54.93
32197;BME280;18697;42.770;23.400;2023-03-25T07:15:58;95265.31;;;14.82;55.22
32197;BME280;18697;42.770;23.400;2023-03-25T07:18:23;95273.25;;;15.00;54.29
32197;BME280;18697;42.770;23.400;2023-03-25T07:20:49;95269.50;;;15.08;53.47
32197;BME280;18697;42.770;23.400;2023-03-25T07:23:14;95263.94;;;14.60;54.98
32197;BME280;18697;42.770;23.400;2023-03-25T07:25:40;95267.59;;;14.77;55.28
32197;BME280;18697;42.770;23.400;2023-03-25T07:28:06;95279.88;;;14.49;55.08
32197;BME280;18697;42.770;23.400;2023-03-25T07:30:31;95275.09;;;15.14;54.47
32197;BME280;18697;42.770;23.400;2023-03-25T07:32:57;95269.41;;;15.68;53.68
32197;BME280;18697;42.770;23.400;2023-03-25T07:35:22;95270.22;;;15.91;52.56
32197;BME280;18697;42.770;23.400;2023-03-25T07:37:47;95258.50;;;15.92;51.07
32197;BME280;18697;42.770;23.400;2023-03-25T07:40:13;95265.09;;;15.67;50.83
32197;BME280;18697;42.770;23.400;2023-03-25T07:42:38;95264.38;;;16.05;50.51
32197;BME280;18697;42.770;23.400;2023-03-25T07:45:04;95268.88;;;15.53;49.74
32197;BME280;18697;42.770;23.400;2023-03-25T07:47:30;95257.91;;;15.43;50.71
32197;BME280;18697;42.770;23.400;2023-03-25T07:49:55;95260.03;;;16.04;50.21
32197;BME280;18697;42.770;23.400;2023-03-25T07:52:21;95252.88;;;16.42;50.42
32197;BME280;18697;42.770;23.400;2023-03-25T07:54:46;95253.88;;;16.67;49.10
32197;BME280;18697;42.770;23.400;2023-03-25T07:57:11;95247.84;;;17.16;48.63
32197;BME280;18697;42.770;23.400;2023-03-25T07:59:37;95239.09;;;17.30;47.75
32197;BME280;18697;42.770;23.400;2023-03-25T08:02:02;95233.75;;;17.27;47.62
32197;BME280;18697;42.770;23.400;2023-03-25T08:04:28;95233.97;;;17.34;47.87
32197;BME280;18697;42.770;23.400;2023-03-25T08:06:53;95222.81;;;17.70;46.81
32197;BME280;18697;42.770;23.400;2023-03-25T08:09:18;95217.25;;;17.94;46.74
32197;BME280;18697;42.770;23.400;2023-03-25T08:11:44;95226.06;;;18.10;45.88
32197;BME280;18697;42.770;23.400;2023-03-25T08:14:10;95220.44;;;18.10;46.43
32197;BME280;18697;42.770;23.400;2023-03-25T08:16:35;95217.28;;;18.49;46.76
32197;BME280;18697;42.770;23.400;2023-03-25T08:19:01;95215.78;;;19.15;45.88
32197;BME280;18697;42.770;23.400;2023-03-25T08:21:26;95209.25;;;19.26;44.85
32197;BME280;18697;42.770;23.400;2023-03-25T08:23:55;95203.53;;;19.13;43.75
32197;BME280;18697;42.770;23.400;2023-03-25T08:26:27;95202.78;;;19.12;44.36
32197;BME280;18697;42.770;23.400;2023-03-25T08:28:54;95202.53;;;19.48;43.68
32197;BME280;18697;42.770;23.400;2023-03-25T08:31:22;95205.53;;;19.18;44.18
32197;BME280;18697;42.770;23.400;2023-03-25T08:33:48;95198.53;;;19.24;44.96
32197;BME280;18697;42.770;23.400;2023-03-25T08:36:13;95207.19;;;19.26;44.39
32197;BME280;18697;42.770;23.400;2023-03-25T08:38:45;95207.78;;;19.38;43.77
32197;BME280;18697;42.770;23.400;2023-03-25T08:41:10;95203.84;;;19.09;44.83
32197;BME280;18697;42.770;23.400;2023-03-25T08:43:36;95198.56;;;19.00;46.59
32197;BME280;18697;42.770;23.400;2023-03-25T08:46:01;95198.72;;;18.89;47.17
32197;BME280;18697;42.770;23.400;2023-03-25T08:48:27;95186.13;;;18.71;46.30
32197;BME280;18697;42.770;23.400;2023-03-25T08:50:52;95186.94;;;18.66;47.32
32197;BME280;18697;42.770;23.400;2023-03-25T08:53:17;95185.66;;;18.67;47.55
32197;BME280;18697;42.770;23.400;2023-03-25T08:55:43;95182.31;;;18.68;46.02
32197;BME280;18697;42.770;23.400;2023-03-25T08:58:08;95185.56;;;18.97;47.40
32197;BME280;18697;42.770;23.400;2023-03-25T09:00:35;95180.88;;;19.61;47.52
32197;BME280;18697;42.770;23.400;2023-03-25T09:03:03;95178.19;;;19.69;46.33
32197;BME280;18697;42.770;23.400;2023-03-25T09:05:28;95179.66;;;19.57;44.85
32197;BME280;18697;42.770;23.400;2023-03-25T09:07:54;95166.47;;;19.65;45.82
32197;BME280;18697;42.770;23.400;2023-03-25T09:10:20;95166.63;;;20.05;44.87
32197;BME280;18697;42.770;23.400;2023-03-25T09:12:45;95159.81;;;20.26;44.71
32197;BME280;18697;42.770;23.400;2023-03-25T09:15:11;95159.53;;;20.56;45.16
32197;BME280;18697;42.770;23.400;2023-03-25T09:17:38;95152.34;;;20.82;43.52
32197;BME280;18697;42.770;23.400;2023-03-25T09:20:04;95157.38;;;20.49;42.97
32197;BME280;18697;42.770;23.400;2023-03-25T09:22:33;95152.56;;;20.84;42.87
32197;BME280;18697;42.770;23.400;2023-03-25T09:24:58;95148.88;;;20.89;42.28
32197;BME280;18697;42.770;23.400;2023-03-25T09:27:24;95142.09;;;21.18;42.91
32197;BME280;18697;42.770;23.400;2023-03-25T09:29:49;95142.53;;;21.36;42.11
32197;BME280;18697;42.770;23.400;2023-03-25T09:32:15;95143.31;;;21.10;40.86
32197;BME280;18697;42.770;23.400;2023-03-25T09:34:42;95138.66;;;21.25;41.11
32197;BME280;18697;42.770;23.400;2023-03-25T09:37:10;95133.94;;;21.41;42.92
32197;BME280;18697;42.770;23.400;2023-03-25T09:39:35;95134.03;;;21.70;39.79
32197;BME280;18697;42.770;23.400;2023-03-25T09:45:04;95120.38;;;22.23;41.66
32197;BME280;18697;42.770;23.400;2023-03-25T09:47:31;95113.09;;;22.63;40.55
32197;BME280;18697;42.770;23.400;2023-03-25T09:50:00;95113.50;;;23.04;39.75
32197;BME280;18697;42.770;23.400;2023-03-25T09:52:34;95104.81;;;22.94;38.41
32197;BME280;18697;42.770;23.400;2023-03-25T09:55:08;95102.44;;;22.77;39.18
32197;BME280;18697;42.770;23.400;2023-03-25T09:57:45;95099.34;;;22.68;38.62
32197;BME280;18697;42.770;23.400;2023-03-25T10:00:23;95091.22;;;22.64;39.25
32197;BME280;18697;42.770;23.400;2023-03-25T10:03:05;95092.13;;;22.59;39.84
32197;BME280;18697;42.770;23.400;2023-03-25T10:11:58;95093.56;;;22.16;39.09
32197;BME280;18697;42.770;23.400;2023-03-25T10:15:04;95088.31;;;22.20;40.41
32197;BME280;18697;42.770;23.400;2023-03-25T10:17:36;95084.59;;;22.25;39.33
32197;BME280;18697;42.770;23.400;2023-03-25T10:20:13;95076.41;;;22.14;38.71
32197;BME280;18697;42.770;23.400;2023-03-25T10:25:17;95070.78;;;22.22;38.62
32197;BME280;18697;42.770;23.400;2023-03-25T10:27:48;95057.63;;;22.32;40.40
32197;BME280;18697;42.770;23.400;2023-03-25T10:30:31;95056.56;;;22.43;39.41
32197;BME280;18697;42.770;23.400;2023-03-25T10:33:01;95051.47;;;22.41;39.68
32197;BME280;18697;42.770;23.400;2023-03-25T10:35:30;95058.44;;;22.40;38.92
32197;BME280;18697;42.770;23.400;2023-03-25T10:38:03;95042.56;;;22.66;38.93
32197;BME280;18697;42.770;23.400;2023-03-25T10:40:38;95045.81;;;23.28;37.17
32197;BME280;18697;42.770;23.400;2023-03-25T10:43:47;95041.56;;;23.66;37.16
32197;BME280;18697;42.770;23.400;2023-03-25T10:48:50;95037.00;;;24.23;34.10
32197;BME280;18697;42.770;23.400;2023-03-25T10:51:31;95039.09;;;24.38;32.49
32197;BME280;18697;42.770;23.400;2023-03-25T10:53:58;95036.38;;;24.55;35.38
32197;BME280;18697;42.770;23.400;2023-03-25T10:56:45;95033.34;;;24.53;34.13
32197;BME280;18697;42.770;23.400;2023-03-25T10:59:18;95027.72;;;24.38;31.22
32197;BME280;18697;42.770;23.400;2023-03-25T11:01:47;95027.34;;;24.34;34.07
32197;BME280;18697;42.770;23.400;2023-03-25T11:04:16;95021.69;;;24.11;33.95
32197;BME280;18697;42.770;23.400;2023-03-25T11:06:47;95006.56;;;23.93;34.64
32197;BME280;18697;42.770;23.400;2023-03-25T11:09:25;95015.47;;;23.90;33.63
32197;BME280;18697;42.770;23.400;2023-03-25T11:11:52;95014.50;;;23.87;32.88
32197;BME280;18697;42.770;23.400;2023-03-25T11:14:23;95015.09;;;23.93;31.86
32197;BME280;18697;42.770;23.400;2023-03-25T11:19:38;95006.38;;;24.07;31.04
32197;BME280;18697;42.770;23.400;2023-03-25T11:22:15;94999.75;;;24.04;32.81
32197;BME280;18697;42.770;23.400;2023-03-25T11:24:43;94985.94;;;24.23;34.69
32197;BME280;18697;42.770;23.400;2023-03-25T11:27:16;94986.22;;;24.58;33.99
32197;BME280;18697;42.770;23.400;2023-03-25T11:29:52;94968.50;;;24.82;34.93
32197;BME280;18697;42.770;23.400;2023-03-25T11:32:33;94973.00;;;25.01;32.15
32197;BME280;18697;42.770;23.400;2023-03-25T11:35:02;94963.75;;;25.25;33.66
32197;BME280;18697;42.770;23.400;2023-03-25T11:37:36;94968.97;;;25.61;32.76
32197;BME280;18697;42.770;23.400;2023-03-25T11:40:13;94970.78;;;25.49;31.40
32197;BME280;18697;42.770;23.400;2023-03-25T11:42:42;94969.41;;;25.00;30.58
32197;BME280;18697;42.770;23.400;2023-03-25T11:45:32;94959.16;;;24.57;32.37
32197;BME280;18697;42.770;23.400;2023-03-25T11:48:01;94942.94;;;24.50;35.21
32197;BME280;18697;42.770;23.400;2023-03-25T11:50:33;94935.03;;;24.33;35.06
32197;BME280;18697;42.770;23.400;2023-03-25T11:53:01;94946.03;;;24.29;35.37
32197;BME280;18697;42.770;23.400;2023-03-25T11:55:31;94933.56;;;24.09;34.71
32197;BME280;18697;42.770;23.400;2023-03-25T11:58:01;94931.38;;;23.70;33.45
32197;BME280;18697;42.770;23.400;2023-03-25T12:00:39;94926.66;;;23.57;35.28
32197;BME280;18697;42.770;23.400;2023-03-25T12:05:37;94926.81;;;23.28;34.13
32197;BME280;18697;42.770;23.400;2023-03-25T12:13:35;94908.59;;;22.71;36.08
32197;BME280;18697;42.770;23.400;2023-03-25T12:21:27;94904.22;;;22.54;34.52
32197;BME280;18697;42.770;23.400;2023-03-25T12:40:22;94913.59;;;21.70;34.69
32197;BME280;18697;42.770;23.400;2023-03-25T12:43:09;94903.97;;;21.65;36.11
32197;BME280;18697;42.770;23.400;2023-03-25T12:53:57;94904.97;;;21.75;36.31
32197;BME280;18697;42.770;23.400;2023-03-25T13:05:19;94887.31;;;21.82;38.17
32197;BME280;18697;42.770;23.400;2023-03-25T13:11:10;94891.31;;;21.94;36.12
32197;BME280;18697;42.770;23.400;2023-03-25T13:13:38;94892.63;;;21.93;36.66
32197;BME280;18697;42.770;23.400;2023-03-25T13:16:08;94895.97;;;21.84;35.67
32197;BME280;18697;42.770;23.400;2023-03-25T13:18:45;94900.28;;;21.78;36.29
32197;BME280;18697;42.770;23.400;2023-03-25T13:21:18;94889.28;;;21.67;36.13
32197;BME280;18697;42.770;23.400;2023-03-25T13:23:53;94904.09;;;21.52;36.09
32197;BME280;18697;42.770;23.400;2023-03-25T13:26:22;94889.91;;;21.44;37.41
32197;BME280;18697;42.770;23.400;2023-03-25T13:31:21;94888.81;;;21.26;37.42
32197;BME280;18697;42.770;23.400;2023-03-25T13:36:39;94893.31;;;21.22;37.95
32197;BME280;18697;42.770;23.400;2023-03-25T13:39:29;94894.25;;;21.04;37.20
32197;BME280;18697;42.770;23.400;2023-03-25T13:42:13;94893.34;;;20.88;35.96
32197;BME280;18697;42.770;23.400;2023-03-25T13:44:42;94899.56;;;20.65;36.04
32197;BME280;18697;42.770;23.400;2023-03-25T13:49:40;94896.38;;;20.35;36.95
32197;BME280;18697;42.770;23.400;2023-03-25T13:52:08;94908.84;;;20.26;37.45
32197;BME280;18697;42.770;23.400;2023-03-25T13:55:07;94912.34;;;20.19;37.35
32197;BME280;18697;42.770;23.400;2023-03-25T14:00:33;94928.72;;;20.08;37.36
32197;BME280;18697;42.770;23.400;2023-03-25T14:11:26;94932.44;;;19.63;41.04
32197;BME280;18697;42.770;23.400;2023-03-25T14:13:59;94939.81;;;19.66;40.48
32197;BME280;18697;42.770;23.400;2023-03-25T14:16:34;94937.09;;;19.60;39.84
32197;BME280;18697;42.770;23.400;2023-03-25T14:19:05;94943.72;;;19.63;40.01
32197;BME280;18697;42.770;23.400;2023-03-25T14:21:40;94937.22;;;19.55;39.88
32197;BME280;18697;42.770;23.400;2023-03-25T14:24:13;94938.38;;;19.46;40.21
32197;BME280;18697;42.770;23.400;2023-03-25T14:26:45;94932.41;;;19.50;40.84
32197;BME280;18697;42.770;23.400;2023-03-25T14:29:30;94936.75;;;19.51;41.15
32197;BME280;18697;42.770;23.400;2023-03-25T14:34:34;94930.81;;;19.54;41.13
32197;BME280;18697;42.770;23.400;2023-03-25T14:44:25;94899.06;;;18.82;44.78
32197;BME280;18697;42.770;23.400;2023-03-25T14:55:19;94890.16;;;18.46;51.25
32197;BME280;18697;42.770;23.400;2023-03-25T14:57:46;94891.13;;;18.49;51.33
32197;BME280;18697;42.770;23.400;2023-03-25T15:00:24;94880.81;;;18.19;53.66
32197;BME280;18697;42.770;23.400;2023-03-25T15:02:59;94878.69;;;18.06;54.66
32197;BME280;18697;42.770;23.400;2023-03-25T15:05:27;94876.72;;;18.01;55.53
32197;BME280;18697;42.770;23.400;2023-03-25T15:07:58;94877.72;;;18.23;54.90
32197;BME280;18697;42.770;23.400;2023-03-25T15:10:29;94877.03;;;18.17;56.75
32197;BME280;18697;42.770;23.400;2023-03-25T15:26:22;94875.22;;;18.70;55.15
32197;BME280;18697;42.770;23.400;2023-03-25T15:32:30;94864.28;;;18.66;54.94
32197;BME280;18697;42.770;23.400;2023-03-25T15:35:13;94862.88;;;18.41;55.36
32197;BME280;18697;42.770;23.400;2023-03-25T15:51:32;94860.94;;;17.80;59.75
32197;BME280;18697;42.770;23.400;2023-03-25T15:56:48;94856.69;;;17.73;60.77
32197;BME280;18697;42.770;23.400;2023-03-25T16:01:42;94847.50;;;17.91;60.22
32197;BME280;18697;42.770;23.400;2023-03-25T16:04:18;94853.56;;;17.95;60.29
32197;BME280;18697;42.770;23.400;2023-03-25T16:06:49;94865.72;;;18.03;59.98
32197;BME280;18697;42.770;23.400;2023-03-25T16:09:23;94863.81;;;18.12;59.96